Terminal Aerodrome Forecast
Issued by NWS

Home | Current Version | Previous Version | Text Only | Print | Product List | Glossary On
Versions: 1 2 3 4 5 6 7 8 9 10 11 12 13 14
000
FTUS45 KABQ 101100
TAFAEG
TAF
KAEG 101129Z 1012/1112 VRB06KT P6SM SCT120
     FM102000 19008KT P6SM SCT120
     FM102200 VRB15G25KT P6SM VCTS BKN090CB
     FM110100 13010KT P6SM VCSH BKN100
     FM110500 14007KT P6SM BKN100=

USA.gov is the U.S. government's official web portal to all federal, state and local government web resources and services.